createdAt,value
2022-07-26T00:00:42.528Z,99698.53
2022-07-26T00:03:15.514Z,99691.23
2022-07-26T00:05:47.801Z,99687.23
2022-07-26T00:08:19.852Z,99688.01
2022-07-26T00:10:53.269Z,99689.51
2022-07-26T00:13:25.437Z,99686.95
2022-07-26T00:16:03.019Z,99680.71
2022-07-26T00:18:35.680Z,99673.00
2022-07-26T00:21:08.195Z,99655.60
2022-07-26T00:23:40.799Z,99665.74
2022-07-26T00:26:12.949Z,99655.45
2022-07-26T00:28:47.255Z,99666.27
2022-07-26T00:31:19.354Z,99664.44
2022-07-26T00:33:51.547Z,99664.69
2022-07-26T00:36:23.954Z,99655.44
2022-07-26T00:38:56.032Z,99643.80
2022-07-26T00:41:27.975Z,99638.77
2022-07-26T00:44:01.745Z,99643.25
2022-07-26T00:46:33.924Z,99646.36
2022-07-26T00:49:06.773Z,99659.20
2022-07-26T00:51:39.361Z,99657.99
2022-07-26T00:54:11.813Z,99660.73
2022-07-26T00:56:44.343Z,99661.77
2022-07-26T00:59:17.421Z,99661.28
2022-07-26T01:01:49.697Z,99660.92
2022-07-26T01:04:22.004Z,99651.23
2022-07-26T01:06:54.431Z,99672.27
2022-07-26T01:09:27.256Z,99673.82
2022-07-26T01:12:00.261Z,99679.37
2022-07-26T01:14:32.415Z,99684.20
2022-07-26T01:17:04.499Z,99694.86
2022-07-26T01:19:36.657Z,99738.95
2022-07-26T01:22:14.161Z,99760.09
2022-07-26T01:24:46.923Z,99754.18
2022-07-26T01:27:19.183Z,99741.66
2022-07-26T01:29:51.924Z,99752.58
2022-07-26T01:32:23.965Z,99750.05
2022-07-26T01:34:56.108Z,99753.58
2022-07-26T01:37:28.404Z,99753.23
2022-07-26T01:40:00.400Z,99752.40
2022-07-26T01:42:32.491Z,99759.48
2022-07-26T01:45:04.739Z,99762.65
2022-07-26T01:47:37.053Z,99760.37
2022-07-26T01:50:12.075Z,99766.38
2022-07-26T01:52:44.869Z,99768.45
2022-07-26T01:55:17.106Z,99775.05
2022-07-26T01:57:49.490Z,99776.53
2022-07-26T02:00:22.836Z,99784.40
2022-07-26T02:02:55.199Z,99782.17
2022-07-26T02:05:27.439Z,99779.96
2022-07-26T02:08:00.027Z,99780.98
2022-07-26T02:10:45.996Z,99791.89
2022-07-26T02:13:20.016Z,99804.41
2022-07-26T02:15:52.063Z,99819.23
2022-07-26T02:18:24.800Z,99825.40
2022-07-26T02:20:58.137Z,99837.34
2022-07-26T02:23:32.533Z,99837.16
2022-07-26T02:26:04.818Z,99843.30
2022-07-26T02:28:36.876Z,99839.34
2022-07-26T02:31:09.029Z,99840.51
2022-07-26T02:33:44.819Z,99835.73
2022-07-26T02:36:16.887Z,99824.76
2022-07-26T02:38:48.884Z,99833.21
2022-07-26T02:41:21.012Z,99835.44
2022-07-26T02:43:53.346Z,99837.73
2022-07-26T02:46:25.493Z,99844.39
2022-07-26T02:48:57.782Z,99848.11
2022-07-26T02:51:30.240Z,99849.08
2022-07-26T02:54:02.318Z,99861.21
2022-07-26T02:56:34.695Z,99873.59
2022-07-26T02:59:07.569Z,99869.91
2022-07-26T03:01:39.881Z,99865.81
2022-07-26T03:04:12.083Z,99870.61
2022-07-26T03:06:44.035Z,99874.77
2022-07-26T03:09:17.282Z,99876.88
2022-07-26T03:11:49.728Z,99886.52
2022-07-26T03:14:21.941Z,99892.52
2022-07-26T03:16:53.957Z,99903.16
2022-07-26T03:19:25.977Z,99901.48
2022-07-26T03:21:58.369Z,99906.60
2022-07-26T03:24:30.450Z,99909.29
2022-07-26T03:27:02.869Z,99907.19
2022-07-26T03:29:35.467Z,99920.23
2022-07-26T03:32:10.083Z,99940.44
2022-07-26T03:34:42.713Z,99928.32
2022-07-26T03:37:14.871Z,99906.23
2022-07-26T03:39:47.511Z,99916.44
2022-07-26T03:42:19.867Z,99907.90
2022-07-26T03:44:51.944Z,99937.19
2022-07-26T03:47:23.947Z,99937.40
2022-07-26T03:49:56.078Z,99932.83
2022-07-26T03:52:29.203Z,99930.84
2022-07-26T03:55:01.536Z,99930.81
2022-07-26T03:57:34.014Z,99927.48
2022-07-26T04:00:09.430Z,99946.44
2022-07-26T04:02:41.593Z,99949.69
2022-07-26T04:05:14.085Z,99947.45
2022-07-26T04:07:53.021Z,99954.17
2022-07-26T04:10:26.422Z,99952.27
2022-07-26T04:12:58.960Z,99953.19
2022-07-26T04:15:31.029Z,99968.98
2022-07-26T04:18:02.993Z,99963.04
2022-07-26T04:20:35.388Z,99974.68
2022-07-26T04:23:11.094Z,99964.19
2022-07-26T04:25:44.849Z,99970.39
2022-07-26T04:28:18.808Z,99987.65
2022-07-26T04:30:54.889Z,99997.52
2022-07-26T04:33:27.585Z,99993.71
2022-07-26T04:35:59.670Z,100007.19
2022-07-26T04:38:32.092Z,100011.41
2022-07-26T04:41:04.261Z,100008.61
2022-07-26T04:43:36.390Z,100006.04
2022-07-26T04:46:08.639Z,100008.29
2022-07-26T04:48:41.485Z,100010.27
2022-07-26T04:51:13.721Z,100006.60
2022-07-26T04:53:46.597Z,100012.35
2022-07-26T04:56:18.773Z,100013.39
2022-07-26T04:58:51.042Z,100006.39
2022-07-26T05:01:23.363Z,100028.33
2022-07-26T05:03:55.492Z,100025.70
2022-07-26T05:06:27.585Z,100026.80
2022-07-26T05:08:59.656Z,100028.09
2022-07-26T05:11:32.110Z,100025.37
2022-07-26T05:14:04.522Z,100031.17
2022-07-26T05:16:39.273Z,100029.92
2022-07-26T05:19:16.619Z,100030.32
2022-07-26T05:21:48.608Z,100037.18
2022-07-26T05:24:20.806Z,100044.08
2022-07-26T05:26:56.840Z,100042.31
2022-07-26T05:29:30.804Z,100044.36
2022-07-26T05:32:03.300Z,100051.02
2022-07-26T05:34:35.629Z,100050.44
2022-07-26T05:37:08.163Z,100052.37
2022-07-26T05:39:40.261Z,100051.55
2022-07-26T05:42:12.350Z,100044.75
2022-07-26T05:44:44.565Z,100054.73
2022-07-26T05:47:16.744Z,100057.55
2022-07-26T05:49:48.933Z,100062.03
2022-07-26T05:52:20.975Z,100057.96
2022-07-26T05:54:53.460Z,100076.02
2022-07-26T05:57:26.079Z,100079.13
2022-07-26T05:59:58.707Z,100083.42
2022-07-26T06:02:30.827Z,100084.54
2022-07-26T06:05:03.057Z,100088.86
2022-07-26T06:07:35.198Z,100086.97
2022-07-26T06:10:09.326Z,100090.29
2022-07-26T06:12:41.765Z,100093.43
2022-07-26T06:15:15.048Z,100097.34
2022-07-26T06:17:48.042Z,100089.08
2022-07-26T06:20:20.171Z,100110.35
2022-07-26T06:22:53.037Z,100124.70
2022-07-26T06:25:25.276Z,100126.38
2022-07-26T06:27:57.429Z,100132.88
2022-07-26T06:30:29.877Z,100134.10
2022-07-26T06:33:02.077Z,100131.84
2022-07-26T06:35:36.108Z,100141.64
2022-07-26T06:38:08.504Z,100133.71
2022-07-26T06:40:41.066Z,100145.55
2022-07-26T06:43:13.182Z,100145.88
2022-07-26T06:45:45.301Z,100149.55
2022-07-26T06:48:17.407Z,100146.39
2022-07-26T06:50:49.795Z,100156.04
2022-07-26T06:53:22.064Z,100154.23
2022-07-26T06:55:54.305Z,100153.84
2022-07-26T06:58:26.450Z,100154.16
2022-07-26T07:00:58.706Z,100146.45
2022-07-26T07:03:30.993Z,100152.36
2022-07-26T07:06:27.201Z,100152.69
2022-07-26T07:08:59.730Z,100150.19
2022-07-26T07:11:31.985Z,100147.77
2022-07-26T07:14:04.356Z,100147.33
2022-07-26T07:16:36.749Z,100152.66
2022-07-26T07:19:09.464Z,100159.92
2022-07-26T07:21:44.753Z,100156.23
2022-07-26T07:24:17.367Z,100153.60
2022-07-26T07:26:49.530Z,100155.04
2022-07-26T07:29:23.228Z,100148.54
2022-07-26T07:31:55.887Z,100151.29
2022-07-26T07:34:28.823Z,100151.92
2022-07-26T07:37:01.073Z,100153.89
2022-07-26T07:39:38.508Z,100158.45
2022-07-26T07:42:10.966Z,100155.85
2022-07-26T07:44:43.135Z,100161.52
2022-07-26T07:47:15.420Z,100161.70
2022-07-26T07:49:47.625Z,100165.43
2022-07-26T07:52:19.824Z,100164.52
2022-07-26T07:54:52.031Z,100167.08
2022-07-26T07:57:24.797Z,100167.73
2022-07-26T07:59:57.853Z,100161.02
2022-07-26T08:02:30.381Z,100165.17
2022-07-26T08:05:14.365Z,100157.61
2022-07-26T08:07:47.605Z,100170.23
2022-07-26T08:10:19.824Z,100172.44
2022-07-26T08:12:51.901Z,100174.42
2022-07-26T08:15:24.485Z,100164.63
2022-07-26T08:17:56.816Z,100178.71
2022-07-26T08:20:30.730Z,100174.04
2022-07-26T08:23:03.118Z,100176.07
2022-07-26T08:25:35.255Z,100174.07
2022-07-26T08:28:19.746Z,100172.48
2022-07-26T08:31:00.192Z,100182.10
2022-07-26T08:33:32.578Z,100181.04
2022-07-26T08:36:04.866Z,100183.92
2022-07-26T08:38:36.961Z,100190.39
2022-07-26T08:41:09.409Z,100189.48
2022-07-26T08:43:52.233Z,100190.83
2022-07-26T08:46:27.976Z,100191.89
2022-07-26T08:49:00.516Z,100190.11
2022-07-26T08:51:34.204Z,100192.16
2022-07-26T08:54:06.425Z,100199.67
2022-07-26T08:56:42.687Z,100200.79
2022-07-26T08:59:22.284Z,100205.55
2022-07-26T09:01:57.554Z,100201.16
2022-07-26T09:04:32.096Z,100203.68
2022-07-26T09:07:07.164Z,100200.70
2022-07-26T09:09:41.076Z,100196.84
2022-07-26T09:12:21.113Z,100197.48
2022-07-26T09:14:54.015Z,100197.58
2022-07-26T09:17:38.002Z,100194.89
2022-07-26T09:20:13.113Z,100201.77
2022-07-26T09:26:05.033Z,100200.42
2022-07-26T09:28:33.761Z,100193.34
2022-07-26T09:31:05.488Z,100193.45
2022-07-26T09:33:46.240Z,100195.52
2022-07-26T09:36:16.483Z,100192.90
2022-07-26T09:38:49.885Z,100194.35
2022-07-26T09:41:20.624Z,100198.05
2022-07-26T09:43:53.671Z,100178.98
2022-07-26T09:46:25.467Z,100195.61
2022-07-26T09:49:11.860Z,100198.59
2022-07-26T09:51:43.228Z,100201.05
2022-07-26T09:54:18.275Z,100201.40
2022-07-26T09:56:54.306Z,100208.05
2022-07-26T09:59:28.186Z,100214.45
2022-07-26T10:02:01.548Z,100211.00
2022-07-26T10:04:34.106Z,100211.02
2022-07-26T10:07:07.359Z,100210.02
2022-07-26T10:09:46.937Z,100214.94
2022-07-26T10:12:20.468Z,100216.15
2022-07-26T10:14:52.755Z,100223.83
2022-07-26T10:17:49.515Z,100219.81
2022-07-26T10:20:43.240Z,100205.56
2022-07-26T10:23:37.254Z,100213.23
2022-07-26T10:26:12.025Z,100222.44
2022-07-26T10:28:44.356Z,100218.64
2022-07-26T10:31:33.260Z,100219.86
2022-07-26T10:34:05.629Z,100222.30
2022-07-26T10:36:40.353Z,100225.02
2022-07-26T10:39:17.743Z,100227.64
2022-07-26T10:41:59.130Z,100223.68
2022-07-26T10:44:32.750Z,100227.08
2022-07-26T10:47:15.728Z,100219.83
2022-07-26T10:49:57.524Z,100221.48
2022-07-26T10:52:31.546Z,100224.91
2022-07-26T10:55:13.479Z,100222.00
2022-07-26T10:57:48.570Z,100220.98
2022-07-26T11:00:23.173Z,100222.95
2022-07-26T11:02:58.638Z,100221.24
2022-07-26T11:05:35.024Z,100218.70
2022-07-26T11:08:10.458Z,100219.35
2022-07-26T11:10:44.262Z,100211.64
2022-07-26T11:13:19.493Z,100220.10
2022-07-26T11:15:59.728Z,100220.40
2022-07-26T11:18:35.377Z,100217.90
2022-07-26T11:21:15.392Z,100220.83
2022-07-26T11:23:51.368Z,100215.02
2022-07-26T11:26:24.584Z,100218.65
2022-07-26T11:28:59.164Z,100215.20
2022-07-26T11:31:50.981Z,100221.86
2022-07-26T11:34:33.968Z,100223.30
2022-07-26T11:37:07.107Z,100224.95
2022-07-26T11:39:39.658Z,100218.66
2022-07-26T11:42:16.270Z,100220.70
2022-07-26T11:44:50.964Z,100221.04
2022-07-26T11:47:24.318Z,100226.92
2022-07-26T11:50:18.685Z,100225.91
2022-07-26T11:52:55.860Z,100227.27
2022-07-26T11:55:32.343Z,100231.38
2022-07-26T11:58:08.391Z,100230.77
2022-07-26T12:00:40.878Z,100228.27
2022-07-26T12:03:13.460Z,100225.63
2022-07-26T12:05:46.482Z,100228.58
2022-07-26T12:08:18.739Z,100226.08
2022-07-26T12:26:37.373Z,100213.83
2022-07-26T12:29:30.048Z,100211.16
2022-07-26T12:32:12.271Z,100214.11
2022-07-26T12:34:56.992Z,100210.66
2022-07-26T12:37:39.533Z,100214.13
2022-07-26T12:40:17.241Z,100214.39
2022-07-26T12:43:01.061Z,100213.10
2022-07-26T12:45:36.142Z,100213.33
2022-07-26T12:48:11.962Z,100209.20
2022-07-26T12:50:44.205Z,100193.35
2022-07-26T12:53:16.487Z,100209.27
2022-07-26T12:55:49.037Z,100210.73
2022-07-26T12:58:21.358Z,100211.76
2022-07-26T13:00:54.853Z,100209.17
2022-07-26T13:03:27.040Z,100206.48
2022-07-26T13:05:59.159Z,100188.64
2022-07-26T13:08:32.008Z,100201.52
2022-07-26T13:11:05.136Z,100207.83
2022-07-26T13:13:37.218Z,100206.70
2022-07-26T13:16:12.287Z,100201.16
2022-07-26T13:18:44.628Z,100209.21
2022-07-26T13:21:16.887Z,100199.15
2022-07-26T13:23:49.018Z,100201.22
2022-07-26T13:26:21.095Z,100199.14
2022-07-26T13:28:55.086Z,100185.61
2022-07-26T13:31:28.967Z,100203.69
2022-07-26T13:34:01.185Z,100203.15
2022-07-26T13:36:34.098Z,100200.31
2022-07-26T13:39:06.948Z,100204.33
2022-07-26T13:41:39.664Z,100201.63
2022-07-26T13:44:11.991Z,100204.33
2022-07-26T13:46:47.243Z,100203.34
2022-07-26T13:49:19.424Z,100200.71
2022-07-26T13:52:01.293Z,100205.58
2022-07-26T13:54:34.820Z,100203.88
2022-07-26T13:57:08.103Z,100198.55
2022-07-26T13:59:40.533Z,100195.57
2022-07-26T14:02:13.104Z,100197.38
2022-07-26T14:04:45.318Z,100191.71
2022-07-26T14:07:17.509Z,100194.67
2022-07-26T14:09:49.680Z,100195.46
2022-07-26T14:12:21.815Z,100194.38
2022-07-26T14:14:54.391Z,100197.79
2022-07-26T14:17:26.679Z,100197.48
2022-07-26T14:19:58.758Z,100196.60
2022-07-26T14:22:31.164Z,100196.92
2022-07-26T14:25:03.293Z,100191.05
2022-07-26T14:27:35.568Z,100191.77
2022-07-26T14:30:09.826Z,100192.42
2022-07-26T14:32:42.608Z,100200.62
2022-07-26T14:35:16.567Z,100202.45
2022-07-26T14:37:48.752Z,100195.48
2022-07-26T14:40:20.785Z,100190.05
2022-07-26T14:42:52.949Z,100190.12
2022-07-26T14:45:25.284Z,100192.71
2022-07-26T14:47:57.858Z,100190.08
2022-07-26T14:50:42.419Z,100187.78
2022-07-26T14:53:22.690Z,100182.39
2022-07-26T14:55:54.910Z,100177.41
2022-07-26T14:58:27.169Z,100181.63
2022-07-26T15:00:59.797Z,100178.17
2022-07-26T15:03:33.608Z,100170.70
2022-07-26T15:06:05.972Z,100180.83
2022-07-26T15:08:38.256Z,100185.08
2022-07-26T15:11:10.507Z,100183.58
2022-07-26T15:13:43.480Z,100187.33
2022-07-26T15:16:15.490Z,100189.79
2022-07-26T15:18:47.661Z,100187.77
2022-07-26T15:21:20.399Z,100185.23
2022-07-26T15:23:52.588Z,100187.29
2022-07-26T15:26:24.776Z,100187.41
2022-07-26T15:28:56.843Z,100189.25
2022-07-26T15:31:36.664Z,100173.17
2022-07-26T15:34:11.628Z,100190.66
2022-07-26T15:36:44.091Z,100190.94
2022-07-26T15:39:17.648Z,100193.96
2022-07-26T15:41:51.391Z,100194.34
2022-07-26T15:44:25.656Z,100191.54
2022-07-26T15:46:58.210Z,100188.91
2022-07-26T15:49:31.065Z,100187.39
2022-07-26T15:52:04.049Z,100187.86
2022-07-26T15:54:37.077Z,100190.56
2022-07-26T15:57:10.080Z,100193.54
2022-07-26T15:59:42.637Z,100189.39
2022-07-26T16:02:15.216Z,100194.63
2022-07-26T16:04:47.686Z,100191.25
2022-07-26T16:07:20.988Z,100177.98
2022-07-26T16:09:53.154Z,100196.08
2022-07-26T16:12:25.711Z,100198.36
2022-07-26T16:14:57.988Z,100195.69
2022-07-26T16:17:30.040Z,100194.82
2022-07-26T16:20:02.235Z,100198.04
2022-07-26T16:22:34.402Z,100182.36
2022-07-26T16:25:07.589Z,100193.36
2022-07-26T16:27:39.722Z,100196.48
2022-07-26T16:30:14.195Z,100203.20
2022-07-26T16:32:47.525Z,100192.79
2022-07-26T16:35:19.771Z,100205.80
2022-07-26T16:37:52.060Z,100212.34
2022-07-26T16:40:24.253Z,100217.45
2022-07-26T16:42:56.563Z,100227.40
2022-07-26T16:45:28.973Z,100252.24
2022-07-26T16:48:01.060Z,100258.41
2022-07-26T16:50:33.622Z,100263.71
2022-07-26T16:53:10.334Z,100265.84
2022-07-26T16:55:45.420Z,100272.82
2022-07-26T16:58:17.771Z,100277.40
2022-07-26T17:00:50.465Z,100286.98
2022-07-26T17:03:23.867Z,100296.21
2022-07-26T17:05:56.344Z,100298.77
2022-07-26T17:08:28.387Z,100297.86
2022-07-26T17:11:00.771Z,100311.50
2022-07-26T17:13:32.939Z,100298.30
2022-07-26T17:16:05.589Z,100316.81
2022-07-26T17:18:37.739Z,100321.75
2022-07-26T17:21:09.809Z,100324.77
2022-07-26T17:23:41.961Z,100338.38
2022-07-26T17:26:14.449Z,100322.11
2022-07-26T17:28:46.937Z,100338.32
2022-07-26T17:31:19.371Z,100330.86
2022-07-26T17:33:51.959Z,100343.48
2022-07-26T17:36:26.788Z,100340.23
2022-07-26T17:39:02.652Z,100317.14
2022-07-26T17:41:35.175Z,100337.92
2022-07-26T17:44:07.765Z,100324.83
2022-07-26T17:46:39.880Z,100331.11
2022-07-26T17:49:12.582Z,100318.05
2022-07-26T17:51:46.071Z,100323.72
2022-07-26T17:54:18.175Z,100327.23
2022-07-26T17:56:50.305Z,100324.32
2022-07-26T17:59:23.446Z,100315.40
2022-07-26T18:01:55.807Z,100317.15
2022-07-26T18:04:28.262Z,100314.60
2022-07-26T18:07:00.861Z,100317.10
2022-07-26T18:09:33.138Z,100318.59
2022-07-26T18:12:06.299Z,100318.65
2022-07-26T18:14:38.414Z,100323.89
2022-07-26T18:17:10.516Z,100322.80
2022-07-26T18:19:43.034Z,100328.35
2022-07-26T18:22:15.463Z,100325.54
2022-07-26T18:24:47.794Z,100325.00
2022-07-26T18:27:19.860Z,100327.37
2022-07-26T18:29:52.088Z,100332.23
2022-07-26T18:32:24.385Z,100332.44
2022-07-26T18:34:56.787Z,100341.08
2022-07-26T18:37:30.156Z,100345.56
2022-07-26T18:40:02.285Z,100353.33
2022-07-26T18:42:36.238Z,100352.44
2022-07-26T18:45:10.176Z,100350.56
2022-07-26T18:47:42.591Z,100347.75
2022-07-26T18:50:17.180Z,100338.55
2022-07-26T18:52:48.066Z,100357.38
2022-07-26T18:55:20.368Z,100365.00
2022-07-26T18:57:52.551Z,100372.81
2022-07-26T19:00:25.297Z,100370.56
2022-07-26T19:02:57.905Z,100375.84
2022-07-26T19:05:34.523Z,100379.94
2022-07-26T19:08:08.193Z,100361.21
2022-07-26T19:10:41.442Z,100391.67
2022-07-26T19:13:14.083Z,100395.02
2022-07-26T19:15:46.494Z,100400.36
2022-07-26T19:18:19.334Z,100403.02
2022-07-26T19:20:51.571Z,100410.45
2022-07-26T19:23:23.917Z,100412.27
2022-07-26T19:25:57.901Z,100415.78
2022-07-26T19:28:30.322Z,100413.41
2022-07-26T19:31:02.866Z,100411.36
2022-07-26T19:33:34.927Z,100410.86
2022-07-26T19:36:09.155Z,100411.51
2022-07-26T19:38:41.495Z,100412.23
2022-07-26T19:41:16.123Z,100411.81
2022-07-26T19:43:49.352Z,100413.41
2022-07-26T19:46:21.949Z,100413.20
2022-07-26T19:48:57.466Z,100416.09
2022-07-26T19:51:31.579Z,100415.84
2022-07-26T19:54:03.820Z,100412.75
2022-07-26T19:56:37.377Z,100414.83
2022-07-26T19:59:10.079Z,100417.67
2022-07-26T20:01:44.728Z,100412.70
2022-07-26T20:04:17.110Z,100409.70
2022-07-26T20:06:49.507Z,100415.48
2022-07-26T20:09:22.201Z,100418.09
2022-07-26T20:11:54.365Z,100414.10
2022-07-26T20:14:26.879Z,100420.77
2022-07-26T20:16:59.490Z,100415.92
2022-07-26T20:19:31.919Z,100420.79
2022-07-26T20:22:04.537Z,100421.73
2022-07-26T20:24:38.493Z,100421.77
2022-07-26T20:27:11.438Z,100416.98
2022-07-26T20:29:43.529Z,100415.80
2022-07-26T20:32:15.771Z,100412.91
2022-07-26T20:34:48.139Z,100417.26
2022-07-26T20:37:21.936Z,100421.98
2022-07-26T20:39:54.488Z,100429.72
2022-07-26T20:42:27.648Z,100431.98
2022-07-26T20:45:01.486Z,100436.75
2022-07-26T20:47:33.861Z,100429.88
2022-07-26T20:50:08.046Z,100446.28
2022-07-26T20:52:40.843Z,100431.29
2022-07-26T20:55:14.208Z,100444.52
2022-07-26T20:57:46.716Z,100448.91
2022-07-26T21:00:22.601Z,100444.64
2022-07-26T21:02:58.194Z,100446.83
2022-07-26T21:05:36.015Z,100445.23
2022-07-26T21:08:10.133Z,100451.04
2022-07-26T21:10:46.210Z,100456.05
2022-07-26T21:13:18.468Z,100457.44
2022-07-26T21:15:53.740Z,100464.46
2022-07-26T21:18:30.723Z,100453.95
2022-07-26T21:21:03.603Z,100471.19
2022-07-26T21:23:35.965Z,100470.11
2022-07-26T21:26:09.414Z,100459.05
2022-07-26T21:28:41.521Z,100465.64
2022-07-26T21:31:14.358Z,100481.99
2022-07-26T21:33:47.092Z,100486.48
2022-07-26T21:36:19.951Z,100481.85
2022-07-26T21:38:52.513Z,100485.11
2022-07-26T21:41:25.737Z,100475.13
2022-07-26T21:43:58.012Z,100490.04
2022-07-26T21:46:30.597Z,100492.75
2022-07-26T21:49:03.246Z,100489.78
2022-07-26T21:51:36.592Z,100491.86
2022-07-26T21:54:08.816Z,100495.11
2022-07-26T21:56:40.956Z,100486.58
2022-07-26T21:59:14.243Z,100489.25
2022-07-26T22:01:46.818Z,100497.55
2022-07-26T22:04:18.955Z,100499.25
2022-07-26T22:06:51.142Z,100498.55
2022-07-26T22:09:23.426Z,100500.05
2022-07-26T22:15:24.571Z,100502.51
2022-07-26T22:17:56.727Z,100500.88
2022-07-26T22:20:33.161Z,100505.08
2022-07-26T22:23:08.243Z,100502.11
2022-07-26T22:25:41.423Z,100500.63
2022-07-26T22:28:18.391Z,100499.27
2022-07-26T22:30:51.469Z,100497.83
2022-07-26T22:33:23.811Z,100500.02
2022-07-26T22:35:56.423Z,100504.73
2022-07-26T22:38:29.059Z,100504.34
2022-07-26T22:41:01.791Z,100501.46
2022-07-26T22:43:34.169Z,100502.36
2022-07-26T22:46:06.756Z,100505.66
2022-07-26T22:52:01.399Z,100507.34
2022-07-26T22:54:33.309Z,100509.16
2022-07-26T22:57:05.893Z,100510.64
2022-07-26T22:59:38.146Z,100511.38
2022-07-26T23:02:10.452Z,100508.18
2022-07-26T23:04:42.586Z,100505.35
2022-07-26T23:07:15.873Z,100508.44
2022-07-26T23:09:50.445Z,100512.16
2022-07-26T23:12:22.874Z,100500.74
2022-07-26T23:14:55.642Z,100496.23
2022-07-26T23:17:28.000Z,100511.79
2022-07-26T23:20:00.523Z,100513.04
2022-07-26T23:22:32.698Z,100524.30
2022-07-26T23:25:05.326Z,100528.70
2022-07-26T23:27:37.835Z,100532.40
2022-07-26T23:30:11.701Z,100534.59
2022-07-26T23:32:43.914Z,100537.25
2022-07-26T23:35:16.121Z,100537.73
2022-07-26T23:37:48.371Z,100539.33
2022-07-26T23:40:21.631Z,100540.77
2022-07-26T23:42:54.593Z,100538.86
2022-07-26T23:45:27.018Z,100524.45
2022-07-26T23:47:59.389Z,100547.88
2022-07-26T23:50:31.866Z,100547.95
2022-07-26T23:53:03.959Z,100538.33
2022-07-26T23:55:36.845Z,100538.79
2022-07-26T23:58:11.939Z,100537.17
